Bayshore, New York
Current Conditions -  °F | °C
As of 4:53 PM on Monday 24 Nov 2014 (Local Time) from KFRG Reporting Station
Clear Clear  
Wind Chill: 16°   Ceiling: Unl
Heat Index: 16°   Visibility: 10mi
Dew Point: 13°   Wind: 17mph
Humidity: 86%   Direction: 220°SW
Pressure: 29.66"   Gusts: 26mph
Location:  40.7379°N, 73.2632°W
Report Text: KFRG 242153Z 22015G23KT 10SM CLR 16/13 A2966 RMK AO2 PK WND 21027/2113 SLP043 T01560133
Loading
Personal Weather Stations






























Interactive Weather Map New forecast layout! Learn more

10-Day Weather Forecast

Advertisements
Track Severe Weather on mobile